Time;durP1;ratioP1;P1;durP2;ratioP2;P2;SDS_P1;SDS_P2;PMS_P1;PMS_P2;Temp;Humidity;BMP_temperature;BMP_pressure;BME280_temperature;BME280_humidity;BME280_pressure;Samples;Min_cycle;Max_cycle;Signal;HPM_P1;HPM_P2
2022/04/19 00:01:20;;;;;;;8.50;2.30;;;11.40;66.90;;;;;;5099600;28;20028;-80
2022/04/19 00:03:46;;;;;;;8.13;2.35;;;11.30;66.90;;;;;;5117435;28;20024;-80
2022/04/19 00:06:13;;;;;;;3.88;2.00;;;11.30;67.20;;;;;;5117274;28;20383;-80
2022/04/19 00:08:38;;;;;;;5.45;2.38;;;11.30;67.90;;;;;;5098716;28;20428;-80
2022/04/19 00:11:04;;;;;;;3.78;2.20;;;11.30;68.30;;;;;;5098005;28;20030;-81
2022/04/19 00:13:31;;;;;;;4.80;2.47;;;11.30;68.30;;;;;;5098672;28;20071;-81
2022/04/19 00:15:58;;;;;;;8.65;2.80;;;11.30;68.00;;;;;;5104128;28;20040;-80
2022/04/19 00:18:26;;;;;;;5.53;1.85;;;11.20;68.80;;;;;;5118643;28;20050;-81
2022/04/19 00:20:53;;;;;;;4.20;1.98;;;11.20;69.10;;;;;;5118200;28;20038;-81
2022/04/19 00:23:18;;;;;;;6.55;3.13;;;11.20;69.00;;;;;;5118723;28;20097;-81
2022/04/19 00:25:48;;;;;;;5.40;2.20;;;11.20;68.80;;;;;;5118871;27;20035;-81
2022/04/19 00:28:15;;;;;;;5.25;2.53;;;11.20;68.30;;;;;;5118568;28;20393;-81
2022/04/19 00:30:41;;;;;;;4.25;2.00;;;11.20;68.60;;;;;;5105170;28;20468;-81
2022/04/19 00:33:08;;;;;;;7.82;2.22;;;11.20;68.80;;;;;;5098236;28;20026;-81
2022/04/19 00:35:40;;;;;;;3.38;1.88;;;11.20;68.60;;;;;;5098126;28;20024;-81
2022/04/19 00:38:06;;;;;;;7.45;2.70;;;11.20;68.80;;;;;;5115545;28;20516;-81
2022/04/19 00:40:32;;;;;;;4.60;2.15;;;11.20;68.80;;;;;;5117893;28;20028;-81
2022/04/19 00:42:58;;;;;;;11.57;2.63;;;11.20;68.70;;;;;;5118417;28;20024;-81
2022/04/19 00:45:24;;;;;;;6.72;1.77;;;11.20;68.90;;;;;;5117948;28;20576;-81
2022/04/19 00:47:53;;;;;;;3.85;2.08;;;11.10;68.90;;;;;;5118368;28;20072;-81
2022/04/19 00:50:19;;;;;;;10.55;2.97;;;11.10;69.60;;;;;;5118268;28;20112;-81
2022/04/19 00:52:48;;;;;;;5.20;2.35;;;11.10;69.70;;;;;;5117718;28;20024;-81
2022/04/19 00:55:13;;;;;;;6.45;2.00;;;11.00;69.90;;;;;;5117468;28;20066;-81
2022/04/19 00:57:41;;;;;;;4.70;2.60;;;11.10;69.50;;;;;;5097023;28;20032;-81
2022/04/19 01:00:12;;;;;;;12.80;2.55;;;10.90;70.30;;;;;;5108905;28;20031;-81
2022/04/19 01:02:38;;;;;;;10.68;2.53;;;11.00;69.80;;;;;;5118017;28;20034;-81
2022/04/19 01:05:05;;;;;;;4.80;2.60;;;10.90;69.80;;;;;;5117454;28;20032;-81
2022/04/19 01:07:32;;;;;;;7.60;2.42;;;10.90;70.10;;;;;;5118015;28;20378;-81
2022/04/19 01:10:01;;;;;;;3.88;2.17;;;10.90;70.20;;;;;;5117147;28;20030;-81
2022/04/19 01:15:20;;;;;;;7.07;2.95;;;10.80;69.70;;;;;;5117993;28;20035;-81
2022/04/19 01:17:47;;;;;;;2.83;1.95;;;10.80;70.30;;;;;;5098237;28;20044;-81
2022/04/19 01:20:13;;;;;;;5.88;2.65;;;10.80;70.10;;;;;;5100462;28;20108;-80
2022/04/19 01:22:42;;;;;;;4.47;2.15;;;10.80;69.90;;;;;;5116305;28;20027;-81
2022/04/19 01:25:10;;;;;;;10.77;2.60;;;10.80;70.00;;;;;;5117510;27;20038;-81
2022/04/19 01:27:36;;;;;;;5.78;2.28;;;10.80;70.30;;;;;;5112661;28;20293;-81
2022/04/19 01:30:08;;;;;;;5.85;2.22;;;10.80;70.50;;;;;;5096925;28;20497;-81
2022/04/19 01:32:37;;;;;;;9.07;2.38;;;10.80;70.80;;;;;;5097004;28;20021;-80
2022/04/19 01:35:12;;;;;;;7.35;2.72;;;10.70;70.90;;;;;;5096456;28;20035;-81
2022/04/19 01:37:40;;;;;;;12.88;2.33;;;10.70;70.50;;;;;;5097577;28;20085;-81
2022/04/19 01:40:18;;;;;;;6.63;2.40;;;10.70;70.20;;;;;;5096825;28;20016;-81
2022/04/19 01:42:48;;;;;;;8.55;2.40;;;10.70;70.70;;;;;;5097272;28;20046;-81
2022/04/19 01:45:15;;;;;;;5.30;2.00;;;10.70;71.00;;;;;;5096920;28;20020;-81
2022/04/19 01:47:41;;;;;;;3.72;2.15;;;10.60;71.00;;;;;;5104082;28;20031;-81
2022/04/19 01:50:10;;;;;;;5.45;2.42;;;10.60;71.10;;;;;;5095346;28;20032;-81
2022/04/19 01:52:40;;;;;;;4.55;2.10;;;10.50;71.00;;;;;;5096636;28;20145;-81
2022/04/19 01:55:16;;;;;;;4.55;2.50;;;10.50;71.00;;;;;;5105995;28;20031;-81
2022/04/19 01:57:47;;;;;;;5.03;2.40;;;10.50;71.20;;;;;;5115912;28;20466;-81
2022/04/19 02:00:14;;;;;;;8.65;2.63;;;10.40;71.00;;;;;;5116859;28;20031;-81
2022/04/19 02:02:40;;;;;;;3.97;1.83;;;10.50;71.40;;;;;;5116885;28;20031;-81
2022/04/19 02:05:07;;;;;;;6.63;2.42;;;10.40;71.90;;;;;;5115163;28;20028;-81
2022/04/19 02:07:36;;;;;;;3.92;2.28;;;10.40;71.30;;;;;;5115415;28;20035;-81
2022/04/19 02:10:04;;;;;;;4.10;2.08;;;10.40;70.90;;;;;;5116652;28;20027;-81
2022/04/19 02:12:31;;;;;;;6.43;2.50;;;10.30;71.60;;;;;;5114722;28;20154;-81
2022/04/19 02:14:57;;;;;;;8.55;2.22;;;10.30;71.40;;;;;;5114793;28;20766;-81
2022/04/19 02:17:23;;;;;;;7.45;1.70;;;10.30;71.80;;;;;;5103243;28;20020;-81
2022/04/19 02:19:59;;;;;;;7.50;1.92;;;10.30;71.80;;;;;;5096029;28;20099;-81
2022/04/19 02:22:26;;;;;;;5.30;2.00;;;10.30;72.10;;;;;;5097359;28;20093;-80
2022/04/19 02:24:53;;;;;;;7.55;2.10;;;10.30;71.60;;;;;;5115819;28;20020;-80
2022/04/19 02:27:18;;;;;;;6.53;2.45;;;10.30;72.40;;;;;;5116468;27;20031;-81
2022/04/19 02:29:44;;;;;;;5.75;2.30;;;10.30;72.30;;;;;;5116347;28;20028;-80
2022/04/19 02:32:10;;;;;;;9.10;2.22;;;10.30;71.50;;;;;;5115364;28;20091;-81
2022/04/19 02:34:35;;;;;;;5.30;1.90;;;10.30;72.30;;;;;;5116066;28;20019;-80
2022/04/19 02:37:01;;;;;;;4.60;2.22;;;10.30;71.90;;;;;;5114409;28;20134;-80
2022/04/19 02:39:28;;;;;;;4.47;2.33;;;10.30;71.40;;;;;;5116235;28;20027;-81
2022/04/19 02:41:54;;;;;;;4.80;2.08;;;10.20;71.70;;;;;;5110720;28;20109;-79
2022/04/19 02:44:20;;;;;;;4.68;2.47;;;10.20;70.70;;;;;;5096012;28;20463;-79
2022/04/19 02:46:45;;;;;;;4.18;1.98;;;10.10;71.70;;;;;;5096353;28;20035;-79
2022/04/19 02:49:11;;;;;;;3.28;2.15;;;10.10;72.00;;;;;;5114948;28;20497;-79
2022/04/19 02:51:37;;;;;;;4.28;1.80;;;10.10;71.50;;;;;;5115782;28;20023;-79
2022/04/19 02:54:03;;;;;;;3.95;1.70;;;10.00;71.90;;;;;;5115991;28;20027;-79
2022/04/19 02:56:29;;;;;;;9.18;2.22;;;10.10;71.90;;;;;;5115215;28;20465;-79
2022/04/19 02:58:54;;;;;;;5.20;1.73;;;10.00;71.70;;;;;;5115688;28;20031;-79
2022/04/19 03:01:20;;;;;;;6.95;1.90;;;10.00;71.90;;;;;;5115881;28;20035;-79
2022/04/19 03:03:48;;;;;;;4.43;2.05;;;9.90;71.70;;;;;;5113722;28;20119;-79
2022/04/19 03:06:14;;;;;;;4.25;1.85;;;9.80;71.30;;;;;;5115641;28;20023;-79
2022/04/19 03:08:39;;;;;;;5.03;1.70;;;9.80;71.70;;;;;;5115220;28;20039;-79
2022/04/19 03:11:05;;;;;;;3.33;2.00;;;9.70;71.20;;;;;;5115022;28;20490;-79
2022/04/19 03:13:35;;;;;;;9.15;2.03;;;9.60;71.60;;;;;;5115196;28;20108;-79
2022/04/19 03:16:01;;;;;;;;;;;9.60;72.00;;;;;;5116164;28;20019;-79
2022/04/19 03:18:27;;;;;;;3.60;1.70;;;9.70;71.80;;;;;;5114896;28;19927;-79
2022/04/19 03:20:56;;;;;;;2.78;1.45;;;9.70;71.90;;;;;;5114244;28;20089;-78
2022/04/19 03:28:59;;;;;;;7.43;2.22;;;9.80;71.70;;;;;;5115389;28;20057;-79
2022/04/19 03:31:25;;;;;;;5.82;1.65;;;9.80;72.60;;;;;;5114077;28;20432;-79
2022/04/19 03:33:53;;;;;;;4.55;1.60;;;9.80;72.40;;;;;;5114849;28;20026;-79
2022/04/19 03:36:20;;;;;;;3.45;1.75;;;9.70;72.30;;;;;;5117958;28;20023;-79
2022/04/19 03:38:46;;;;;;;3.33;1.88;;;9.70;72.00;;;;;;5116636;28;20072;-79
2022/04/19 03:41:12;;;;;;;5.60;1.73;;;9.70;71.30;;;;;;5111739;28;20039;-79
2022/04/19 03:43:38;;;;;;;2.13;1.40;;;9.60;71.90;;;;;;5103497;28;20032;-77
2022/04/19 03:46:05;;;;;;;5.18;1.73;;;9.60;71.60;;;;;;5114797;28;20138;-76
2022/04/19 03:48:32;;;;;;;4.53;1.90;;;9.50;71.40;;;;;;5114506;28;20028;-77
2022/04/19 03:50:58;;;;;;;4.18;1.65;;;9.40;71.80;;;;;;5112962;28;20542;-77
2022/04/19 04:09:25;;;;;;;5.72;1.83;;;8.10;76.00;;;;;;5080328;28;20374;-86
2022/04/19 04:11:53;;;;;;;5.10;1.92;;;8.10;75.90;;;;;;5045288;28;20030;-80
2022/04/19 04:14:19;;;;;;;3.70;1.92;;;8.30;75.60;;;;;;5032168;28;20036;-81
2022/04/19 04:16:45;;;;;;;3.42;2.38;;;8.50;75.10;;;;;;5031588;28;20061;-81
2022/04/19 04:19:14;;;;;;;3.67;2.05;;;8.80;75.10;;;;;;5032150;28;20022;-84
2022/04/19 04:21:39;;;;;;;3.53;1.80;;;8.90;74.20;;;;;;5031408;28;20044;-81
2022/04/19 04:24:05;;;;;;;2.78;1.70;;;9.00;72.90;;;;;;5050463;28;20403;-80
2022/04/19 04:26:31;;;;;;;5.35;1.98;;;9.00;72.90;;;;;;5053061;28;20476;-80
2022/04/19 04:28:59;;;;;;;6.82;2.55;;;9.00;72.50;;;;;;5049095;28;20085;-80
2022/04/19 04:31:25;;;;;;;8.88;2.80;;;9.00;72.90;;;;;;5058126;28;20029;-80
2022/04/19 04:33:51;;;;;;;6.47;2.38;;;9.10;72.80;;;;;;5050848;28;20400;-80
2022/04/19 04:36:16;;;;;;;4.15;2.42;;;9.20;72.80;;;;;;5038194;28;20026;-80
2022/04/19 04:38:42;;;;;;;7.53;1.95;;;9.20;72.70;;;;;;5045813;28;20033;-81
2022/04/19 04:41:13;;;;;;;5.32;1.85;;;9.10;72.70;;;;;;5046076;28;20096;-80
2022/04/19 04:43:40;;;;;;;5.53;2.03;;;9.20;72.10;;;;;;5050465;28;20028;-86
2022/04/19 04:51:39;;;;;;;3.47;1.45;;;9.10;72.90;;;;;;5051913;28;20063;-82
2022/04/19 04:54:05;;;;;;;7.20;1.90;;;9.10;73.30;;;;;;5051577;28;20026;-82
2022/04/19 04:56:31;;;;;;;3.90;1.80;;;9.00;72.30;;;;;;5044992;28;20032;-82
2022/04/19 04:58:57;;;;;;;3.35;2.20;;;8.90;72.40;;;;;;5031929;28;20029;-82
2022/04/19 05:01:22;;;;;;;5.97;2.05;;;8.90;72.40;;;;;;5050680;28;20480;-82
2022/04/19 05:03:48;;;;;;;6.07;2.28;;;8.80;72.40;;;;;;5045175;28;20033;-83
2022/04/19 05:06:14;;;;;;;5.95;2.35;;;8.80;72.50;;;;;;5045897;28;20025;-82
2022/04/19 05:08:44;;;;;;;7.63;2.22;;;9.00;73.30;;;;;;5049214;28;20057;-82
2022/04/19 05:11:09;;;;;;;;;;;9.10;73.40;;;;;;5050339;28;20044;-82
2022/04/19 05:13:35;;;;;;;3.05;1.92;;;9.10;72.70;;;;;;5046353;28;19913;-82
2022/04/19 05:16:01;;;;;;;4.38;2.35;;;9.20;72.10;;;;;;5031151;28;20018;-82
2022/04/19 05:18:27;;;;;;;3.50;2.40;;;9.10;72.10;;;;;;5030860;28;20045;-82
2022/04/19 05:20:53;;;;;;;7.10;2.50;;;9.00;72.60;;;;;;5029235;28;20030;-82
2022/04/19 05:23:20;;;;;;;4.35;2.75;;;9.00;72.70;;;;;;5018089;28;20927;-83
2022/04/19 05:25:46;;;;;;;4.13;2.35;;;9.00;72.50;;;;;;5049891;28;20409;-82
2022/04/19 05:28:12;;;;;;;4.03;1.73;;;9.00;72.40;;;;;;5033110;28;20120;-82
2022/04/19 05:30:38;;;;;;;2.47;1.70;;;9.10;71.80;;;;;;5017842;28;20053;-82
2022/04/19 05:33:05;;;;;;;4.53;1.70;;;9.20;72.20;;;;;;5017869;28;20025;-82
2022/04/19 05:35:31;;;;;;;6.72;2.03;;;9.20;72.30;;;;;;5049401;28;20100;-82
2022/04/19 05:37:58;;;;;;;3.17;1.88;;;9.20;72.00;;;;;;5025718;28;20092;-82
2022/04/19 05:40:24;;;;;;;1.33;1.17;;;9.20;72.10;;;;;;5017647;28;20022;-82
2022/04/19 05:42:50;;;;;;;4.00;2.00;;;9.20;72.10;;;;;;5017806;28;20021;-83
2022/04/19 05:45:16;;;;;;;6.00;1.88;;;9.20;72.00;;;;;;5017639;28;20022;-83
2022/04/19 05:47:43;;;;;;;4.30;2.13;;;9.20;71.70;;;;;;5026057;28;20035;-83
2022/04/19 05:50:09;;;;;;;3.72;1.92;;;9.20;72.20;;;;;;5031707;28;20033;-83
2022/04/19 05:52:35;;;;;;;5.75;1.55;;;9.20;71.90;;;;;;5017603;28;20018;-83
2022/04/19 05:55:01;;;;;;;3.80;1.80;;;9.20;71.90;;;;;;5015576;28;20029;-82
2022/04/19 05:57:27;;;;;;;5.43;2.13;;;9.30;72.30;;;;;;5017603;28;20456;-82
2022/04/19 05:59:52;;;;;;;5.03;2.10;;;9.30;71.60;;;;;;5026089;28;20044;-82
2022/04/19 06:05:04;;;;;;;2.25;1.38;;;9.50;71.60;;;;;;5017478;28;20041;-82
2022/04/19 06:07:31;;;;;;;2.45;1.85;;;9.50;71.80;;;;;;5017183;28;20042;-82
2022/04/19 06:09:59;;;;;;;5.05;1.98;;;9.60;71.20;;;;;;5031796;28;20030;-82
2022/04/19 06:12:25;;;;;;;3.92;1.77;;;9.70;71.40;;;;;;5032783;28;20545;-82
2022/04/19 06:14:51;;;;;;;2.42;1.55;;;9.70;71.50;;;;;;5035489;28;20112;-82
2022/04/19 06:17:18;;;;;;;2.42;1.38;;;9.70;71.70;;;;;;5017166;28;20014;-82
2022/04/19 06:19:44;;;;;;;3.10;1.75;;;9.60;72.50;;;;;;5017310;28;20038;-82
2022/04/19 06:22:10;;;;;;;5.88;2.15;;;9.60;72.40;;;;;;5017081;28;20139;-82
2022/04/19 06:24:37;;;;;;;8.55;1.65;;;9.70;72.50;;;;;;5017072;28;20026;-82
2022/04/19 06:27:03;;;;;;;2.83;1.80;;;9.70;71.80;;;;;;5016714;28;20030;-82
2022/04/19 06:29:29;;;;;;;3.67;2.03;;;9.80;72.10;;;;;;5048476;28;20373;-80
2022/04/19 06:31:54;;;;;;;5.40;2.33;;;9.80;72.30;;;;;;5015469;28;20022;-82
2022/04/19 06:34:20;;;;;;;3.72;1.95;;;9.80;72.50;;;;;;5016690;28;20022;-82
2022/04/19 06:36:46;;;;;;;3.28;1.58;;;9.80;72.30;;;;;;5016870;28;20022;-82
2022/04/19 06:39:12;;;;;;;3.80;2.08;;;9.90;72.30;;;;;;5016563;28;20037;-82
2022/04/19 06:41:38;;;;;;;3.92;1.77;;;9.90;72.50;;;;;;5016266;28;20034;-82
2022/04/19 06:44:05;;;;;;;3.03;1.60;;;9.90;72.70;;;;;;5016549;28;20029;-82
2022/04/19 06:46:31;;;;;;;3.42;1.60;;;10.00;73.30;;;;;;5016603;28;20062;-82
2022/04/19 06:48:58;;;;;;;7.47;2.30;;;10.00;73.30;;;;;;5024849;28;20030;-82
2022/04/19 06:51:25;;;;;;;12.38;2.60;;;10.10;73.70;;;;;;5016024;28;20469;-83
2022/04/19 06:53:51;;;;;;;4.13;1.73;;;10.20;73.40;;;;;;5016375;28;20033;-82
2022/04/19 06:56:17;;;;;;;3.70;2.08;;;10.20;73.50;;;;;;5016203;28;20033;-82
2022/04/19 06:58:44;;;;;;;2.83;1.60;;;10.30;74.20;;;;;;5016415;28;20665;-80
2022/04/19 07:01:10;;;;;;;8.75;2.05;;;10.30;74.00;;;;;;5035535;28;20030;-82
2022/04/19 07:03:37;;;;;;;4.45;2.13;;;10.50;74.20;;;;;;5030671;28;20121;-82
2022/04/19 07:06:03;;;;;;;5.60;1.90;;;10.60;73.80;;;;;;5015706;28;20030;-82
2022/04/19 07:08:30;;;;;;;4.38;1.80;;;10.70;74.30;;;;;;5015729;28;20054;-83
2022/04/19 07:10:56;;;;;;;5.93;1.85;;;10.70;74.30;;;;;;5017368;28;20052;-82
2022/04/19 07:13:26;;;;;;;7.28;1.67;;;10.70;74.40;;;;;;5016058;28;20516;-83
2022/04/19 07:15:51;;;;;;;3.17;1.63;;;10.80;73.90;;;;;;5016340;28;20038;-82
2022/04/19 07:18:17;;;;;;;4.07;1.73;;;10.70;74.70;;;;;;5015650;28;20105;-82
2022/04/19 07:28:55;;;;;;;7.43;1.90;;;10.90;74.40;;;;;;5016021;28;20033;-82
2022/04/19 07:31:21;;;;;;;3.67;1.35;;;11.30;73.60;;;;;;5015611;28;20037;-82
2022/04/19 07:33:47;;;;;;;6.35;1.63;;;11.60;72.70;;;;;;5015741;28;20057;-80
2022/04/19 07:36:12;;;;;;;4.03;1.40;;;11.70;72.50;;;;;;5015747;28;20117;-82
2022/04/19 07:38:38;;;;;;;2.58;1.30;;;11.70;73.10;;;;;;5030993;28;20480;-80
2022/04/19 07:41:04;;;;;;;4.88;1.38;;;11.90;72.30;;;;;;5014803;28;20595;-80
2022/04/19 07:43:30;;;;;;;3.22;1.30;;;12.00;71.80;;;;;;5015362;28;20034;-80
2022/04/19 07:45:56;;;;;;;6.57;1.52;;;12.30;71.00;;;;;;5015355;28;20018;-83
2022/04/19 07:48:22;;;;;;;2.25;1.58;;;12.50;70.00;;;;;;5029549;28;20033;-81
2022/04/19 07:50:48;;;;;;;5.10;1.30;;;12.90;68.70;;;;;;5035225;28;20163;-81
2022/04/19 07:53:13;;;;;;;2.10;0.93;;;14.50;64.70;;;;;;5035336;28;20025;-82
2022/04/19 07:55:39;;;;;;;3.50;1.08;;;16.80;58.10;;;;;;5020828;28;20066;-82
2022/04/19 07:58:05;;;;;;;3.00;0.75;;;19.80;48.60;;;;;;5029723;28;20041;-83
2022/04/19 08:00:31;;;;;;;2.80;0.80;;;22.10;44.20;;;;;;5029419;28;20032;-83
2022/04/19 08:02:57;;;;;;;4.13;0.55;;;23.50;39.50;;;;;;5019496;28;20025;-84
2022/04/19 08:05:24;;;;;;;2.95;0.60;;;24.60;36.80;;;;;;5015371;28;20033;-84
2022/04/19 08:07:50;;;;;;;5.07;1.10;;;25.40;35.90;;;;;;5015255;28;20161;-83
2022/04/19 08:10:16;;;;;;;2.28;0.75;;;25.20;34.90;;;;;;5014847;28;20037;-84
2022/04/19 08:12:42;;;;;;;5.30;0.77;;;26.30;32.80;;;;;;5033738;28;20031;-84
2022/04/19 08:15:09;;;;;;;3.92;0.80;;;26.70;32.20;;;;;;5031286;28;20656;-84
2022/04/19 08:17:36;;;;;;;2.47;0.70;;;27.40;31.40;;;;;;5030200;28;20026;-84
2022/04/19 08:20:02;;;;;;;2.20;0.80;;;28.50;30.10;;;;;;5015057;28;20022;-84
2022/04/19 08:22:28;;;;;;;4.38;0.80;;;29.10;28.00;;;;;;5015223;28;20032;-84
2022/04/19 08:24:54;;;;;;;1.55;0.60;;;29.90;27.40;;;;;;5015113;28;20046;-84
2022/04/19 08:27:20;;;;;;;1.50;0.73;;;30.30;26.40;;;;;;5015221;28;20030;-84
2022/04/19 08:29:46;;;;;;;3.22;0.52;;;30.70;26.40;;;;;;5015090;28;20018;-84
2022/04/19 08:32:13;;;;;;;3.80;0.75;;;31.00;26.10;;;;;;5015074;28;20066;-84
2022/04/19 08:34:39;;;;;;;5.07;1.02;;;31.30;26.10;;;;;;5030095;28;20038;-84
2022/04/19 08:37:06;;;;;;;2.90;0.60;;;31.40;25.20;;;;;;5014571;28;20101;-84
2022/04/19 08:39:32;;;;;;;3.72;1.10;;;31.50;24.30;;;;;;5015055;28;20018;-84
2022/04/19 08:41:58;;;;;;;2.45;0.60;;;31.80;24.70;;;;;;5014641;28;20497;-83
2022/04/19 08:44:25;;;;;;;4.20;0.90;;;31.50;24.20;;;;;;5030113;28;20775;-82
2022/04/19 08:46:52;;;;;;;1.73;0.60;;;30.50;26.00;;;;;;5015139;28;20033;-82
2022/04/19 08:49:20;;;;;;;3.78;0.63;;;29.90;25.90;;;;;;5031341;28;20188;-82
2022/04/19 08:51:45;;;;;;;4.07;0.70;;;29.40;25.70;;;;;;5014811;28;20033;-82
2022/04/19 08:59:41;;;;;;;3.13;0.70;;;30.10;25.10;;;;;;5026073;28;20033;-82
2022/04/19 09:02:07;;;;;;;3.83;1.00;;;28.00;25.30;;;;;;5036514;28;20097;-82
2022/04/19 09:04:33;;;;;;;3.03;0.70;;;28.60;26.20;;;;;;5038099;28;20043;-81
2022/04/19 09:07:00;;;;;;;3.40;1.00;;;29.20;25.30;;;;;;5038124;28;20029;-82
2022/04/19 09:09:32;;;;;;;2.30;0.82;;;29.90;24.30;;;;;;5020310;28;20497;-82
2022/04/19 09:12:12;;;;;;;2.63;0.85;;;30.20;24.50;;;;;;5030082;28;20492;-82
2022/04/19 09:14:58;;;;;;;2.40;0.88;;;30.30;24.50;;;;;;5037897;28;20040;-82
2022/04/19 09:17:40;;;;;;;2.60;0.80;;;30.00;24.50;;;;;;5021503;28;20030;-82
2022/04/19 09:20:15;;;;;;;1.50;0.60;;;29.40;24.70;;;;;;5018177;28;20469;-82
2022/04/19 09:22:42;;;;;;;1.58;0.60;;;26.90;25.90;;;;;;5018144;28;20030;-81
2022/04/19 09:25:25;;;;;;;2.67;0.75;;;26.10;28.10;;;;;;5017876;28;20358;-81
2022/04/19 09:27:51;;;;;;;4.05;1.23;;;24.60;30.10;;;;;;5018074;28;20030;-81
2022/04/19 09:30:21;;;;;;;2.88;1.05;;;25.40;29.60;;;;;;5017332;28;20022;-81
2022/04/19 09:33:14;;;;;;;1.98;0.57;;;26.30;28.60;;;;;;5017732;28;20088;-81
2022/04/19 09:35:53;;;;;;;2.05;0.70;;;27.10;27.90;;;;;;5019618;28;20118;-81
2022/04/19 09:38:36;;;;;;;2.72;0.65;;;27.90;26.40;;;;;;5026467;28;20040;-81
2022/04/19 09:41:04;;;;;;;1.92;0.50;;;28.90;25.90;;;;;;5017350;28;20014;-81
2022/04/19 09:43:30;;;;;;;2.00;0.38;;;29.40;25.90;;;;;;5017701;28;20030;-81
2022/04/19 09:45:58;;;;;;;2.45;0.50;;;27.80;27.00;;;;;;5017603;28;20370;-81
2022/04/19 09:48:32;;;;;;;3.15;0.60;;;26.20;27.40;;;;;;5031983;28;20064;-81
2022/04/19 09:51:02;;;;;;;1.73;0.43;;;24.90;29.30;;;;;;5019932;28;20014;-81
2022/04/19 09:53:30;;;;;;;2.88;0.80;;;24.00;29.80;;;;;;5017688;28;20026;-81
2022/04/19 09:55:57;;;;;;;3.50;0.70;;;23.00;31.40;;;;;;5017322;28;20064;-80
2022/04/19 09:58:24;;;;;;;2.17;0.82;;;22.20;33.00;;;;;;5017260;28;20030;-80
2022/04/19 10:00:51;;;;;;;2.20;0.57;;;22.00;33.70;;;;;;5034123;28;20021;-81
2022/04/19 10:08:49;;;;;;;4.00;0.70;;;22.20;33.30;;;;;;5017286;28;20115;-81
2022/04/19 10:11:15;;;;;;;1.73;0.75;;;23.00;32.70;;;;;;5038469;28;20041;-82
2022/04/19 10:13:41;;;;;;;3.30;0.52;;;24.40;29.30;;;;;;5036973;28;20018;-82
2022/04/19 10:16:16;;;;;;;4.55;0.52;;;24.80;26.80;;;;;;5036877;28;20022;-82
2022/04/19 10:18:47;;;;;;;3.80;0.40;;;25.20;28.00;;;;;;5019471;28;20479;-82
2022/04/19 10:21:19;;;;;;;2.08;0.40;;;24.70;29.00;;;;;;5016820;28;20036;-81
2022/04/19 10:23:46;;;;;;;1.98;0.50;;;23.40;30.20;;;;;;5016282;28;20030;-81
2022/04/19 10:26:16;;;;;;;1.20;0.40;;;21.90;30.10;;;;;;5016824;28;20033;-81
2022/04/19 10:28:42;;;;;;;;;;;21.40;31.40;;;;;;5017377;28;20534;-81
2022/04/19 10:31:09;;;;;;;1.05;0.40;;;21.40;32.20;;;;;;5016617;28;19909;-81
2022/04/19 10:33:45;;;;;;;1.95;0.50;;;21.00;32.70;;;;;;5016766;28;20097;-81
2022/04/19 10:36:22;;;;;;;3.40;0.70;;;21.10;33.20;;;;;;5016688;28;20022;-81
2022/04/19 10:39:15;;;;;;;5.00;0.85;;;21.10;34.10;;;;;;5016568;28;20473;-82
2022/04/19 10:41:52;;;;;;;3.90;0.65;;;21.10;35.50;;;;;;5031789;28;20026;-82
2022/04/19 10:44:31;;;;;;;1.85;0.70;;;20.90;36.20;;;;;;5016091;28;20032;-81
2022/04/19 10:47:07;;;;;;;2.95;1.10;;;21.00;36.30;;;;;;5018703;28;20113;-81
2022/04/19 10:49:58;;;;;;;1.48;0.65;;;20.90;36.80;;;;;;5034794;28;20017;-81
2022/04/19 10:52:39;;;;;;;2.90;0.80;;;19.70;36.90;;;;;;5035761;28;20030;-81
2022/04/19 10:55:09;;;;;;;3.28;1.10;;;19.50;37.80;;;;;;5016377;28;20259;-81
2022/04/19 11:00:43;;;;;;;2.92;0.90;;;19.70;39.20;;;;;;5029084;28;20037;-81
2022/04/19 11:03:11;;;;;;;3.28;1.00;;;19.50;38.90;;;;;;5019052;28;20057;-81
2022/04/19 11:05:50;;;;;;;1.90;0.93;;;19.20;40.10;;;;;;5031460;28;20080;-81
2022/04/19 11:08:24;;;;;;;1.80;0.70;;;19.50;39.10;;;;;;5047724;28;20062;-80
2022/04/19 11:11:23;;;;;;;2.25;0.82;;;19.80;38.70;;;;;;5019091;28;20387;-81
2022/04/19 11:14:18;;;;;;;1.67;0.57;;;19.90;36.70;;;;;;5035732;28;20707;-81
2022/04/19 11:16:48;;;;;;;1.65;0.60;;;19.80;37.70;;;;;;5035183;28;20108;-81
2022/04/19 11:19:19;;;;;;;3.15;0.82;;;19.90;36.90;;;;;;5023404;28;20149;-80
2022/04/19 11:21:48;;;;;;;5.05;0.50;;;19.90;36.80;;;;;;5016037;28;20026;-81
2022/04/19 11:24:52;;;;;;;0.80;0.53;;;20.10;37.10;;;;;;5016027;28;20030;-81
2022/04/19 11:27:19;;;;;;;2.17;0.85;;;20.10;36.70;;;;;;5015843;28;20041;-81
2022/04/19 11:29:51;;;;;;;2.88;0.70;;;20.10;37.10;;;;;;5015662;28;20514;-81
2022/04/19 11:32:25;;;;;;;3.05;0.80;;;20.40;36.30;;;;;;5015718;28;20029;-81
2022/04/19 11:35:01;;;;;;;3.72;0.85;;;20.30;36.90;;;;;;5015792;28;20025;-81
2022/04/19 11:37:28;;;;;;;1.20;0.60;;;19.70;37.40;;;;;;5015176;28;20030;-81
2022/04/19 11:48:26;;;;;;;1.65;0.80;;;18.70;37.90;;;;;;5022724;28;20072;-81
2022/04/19 11:50:52;;;;;;;1.92;0.60;;;18.90;37.50;;;;;;5030678;28;20026;-82
2022/04/19 11:53:24;;;;;;;2.65;0.60;;;18.90;37.00;;;;;;5014883;28;20677;-81
2022/04/19 11:55:52;;;;;;;2.72;0.55;;;18.80;37.50;;;;;;5015237;28;20437;-81
2022/04/19 11:58:21;;;;;;;3.10;0.68;;;19.10;38.30;;;;;;5015335;28;20029;-81
2022/04/19 12:01:16;;;;;;;1.57;0.70;;;19.50;37.40;;;;;;5027289;28;20095;-81
2022/04/19 12:03:42;;;;;;;1.85;0.75;;;19.20;37.80;;;;;;5014771;28;20275;-81
2022/04/19 12:06:12;;;;;;;3.00;0.95;;;19.00;37.90;;;;;;5015298;28;20492;-80
2022/04/19 12:08:43;;;;;;;0.73;0.40;;;18.90;37.30;;;;;;5015108;28;20053;-81
2022/04/19 12:11:16;;;;;;;3.53;0.70;;;18.60;37.30;;;;;;5035225;28;20033;-81
2022/04/19 12:13:49;;;;;;;2.65;0.80;;;18.20;38.60;;;;;;5015156;28;20389;-81
2022/04/19 12:16:34;;;;;;;2.25;1.00;;;18.20;39.90;;;;;;5015321;28;20034;-81
2022/04/19 12:19:08;;;;;;;2.20;1.02;;;18.40;40.00;;;;;;5014854;28;20029;-81
2022/04/19 12:21:38;;;;;;;4.15;0.80;;;18.60;41.20;;;;;;5015260;28;20038;-81
2022/04/19 12:24:04;;;;;;;;;;;18.70;40.10;;;;;;5015515;28;20036;-81
2022/04/19 12:26:30;;;;;;;5.88;0.85;;;18.00;39.30;;;;;;5015077;28;19914;-81
2022/04/19 12:29:11;;;;;;;2.70;0.60;;;18.20;39.70;;;;;;5014623;28;20594;-81
2022/04/19 12:31:39;;;;;;;1.23;0.80;;;17.90;39.70;;;;;;5018959;28;20025;-81
2022/04/19 12:34:06;;;;;;;1.20;0.50;;;17.80;40.30;;;;;;5018925;28;20018;-81
2022/04/19 12:36:49;;;;;;;2.17;0.60;;;18.20;40.20;;;;;;5019007;28;20048;-81
2022/04/19 12:39:17;;;;;;;0.90;0.50;;;18.20;40.20;;;;;;5018705;28;20448;-81
2022/04/19 12:41:44;;;;;;;2.25;0.73;;;18.60;39.20;;;;;;5033995;28;20112;-80
2022/04/19 12:44:14;;;;;;;4.32;1.02;;;18.70;38.90;;;;;;5018889;28;20026;-81
2022/04/19 12:46:43;;;;;;;1.52;0.70;;;18.50;38.00;;;;;;5017385;28;20041;-81
2022/04/19 12:49:31;;;;;;;3.30;0.60;;;18.80;38.50;;;;;;5036871;28;20021;-81
2022/04/19 12:52:05;;;;;;;1.65;0.70;;;18.60;37.40;;;;;;5038599;28;20053;-81
2022/04/19 12:54:33;;;;;;;1.98;0.57;;;18.80;38.30;;;;;;5029041;28;20045;-81
2022/04/19 12:57:38;;;;;;;1.63;0.50;;;19.20;39.30;;;;;;5018593;28;20488;-81
2022/04/19 13:00:11;;;;;;;1.48;0.70;;;18.90;37.70;;;;;;5029015;28;20064;-81
2022/04/19 13:02:38;;;;;;;1.42;0.55;;;18.80;37.90;;;;;;5032899;28;20018;-80
2022/04/19 13:05:04;;;;;;;3.53;0.80;;;18.60;36.60;;;;;;5018496;28;20021;-81
2022/04/19 13:12:50;;;;;;;1.83;0.70;;;18.80;35.80;;;;;;5037407;28;20109;-81
2022/04/19 13:15:16;;;;;;;1.02;0.40;;;18.80;34.20;;;;;;5037988;28;20044;-82
2022/04/19 13:17:42;;;;;;;1.85;0.45;;;18.20;34.80;;;;;;5038172;28;20034;-81
2022/04/19 13:20:09;;;;;;;1.08;0.60;;;18.40;36.30;;;;;;5020137;28;20038;-81
2022/04/19 13:22:38;;;;;;;2.63;0.50;;;18.90;36.80;;;;;;5018259;28;20029;-81
2022/04/19 13:25:05;;;;;;;0.80;0.30;;;18.60;37.30;;;;;;5017918;28;20385;-82
2022/04/19 13:27:35;;;;;;;1.67;0.47;;;18.30;37.20;;;;;;5017497;28;20029;-81
2022/04/19 13:30:01;;;;;;;0.90;0.40;;;18.00;37.50;;;;;;5049583;28;20032;-81
2022/04/19 13:32:27;;;;;;;1.80;0.50;;;17.80;38.10;;;;;;5018002;28;20108;-81
2022/04/19 13:34:53;;;;;;;2.38;0.43;;;17.70;37.50;;;;;;5032984;28;20060;-81
2022/04/19 13:38:23;;;;;;;2.15;0.70;;;18.00;38.10;;;;;;5032154;28;20045;-82
2022/04/19 13:40:05;;;;;;;3.33;1.02;;;18.30;38.10;;;;;;5017114;28;20045;-82
2022/04/19 13:42:31;;;;;;;1.52;0.40;;;18.90;37.30;;;;;;5017256;28;20049;-82
2022/04/19 13:44:57;;;;;;;1.40;0.55;;;19.00;37.70;;;;;;5017733;28;20021;-82
2022/04/19 13:47:23;;;;;;;2.78;0.70;;;18.70;37.00;;;;;;5023463;28;20022;-82
2022/04/19 13:49:49;;;;;;;2.03;0.70;;;18.70;36.90;;;;;;5037459;28;20082;-82
2022/04/19 13:52:15;;;;;;;1.92;0.55;;;19.00;36.90;;;;;;5021789;28;20077;-82
2022/04/19 13:54:40;;;;;;;1.83;0.70;;;19.00;37.50;;;;;;5017458;28;20029;-82
2022/04/19 13:57:08;;;;;;;3.03;1.00;;;18.80;38.60;;;;;;5017458;28;20029;-81
2022/04/19 13:59:33;;;;;;;4.32;0.73;;;18.60;38.00;;;;;;5023592;28;20554;-81
2022/04/19 14:01:59;;;;;;;3.15;0.73;;;18.50;38.20;;;;;;5036095;28;20029;-82
2022/04/19 14:04:25;;;;;;;2.53;0.60;;;18.30;37.80;;;;;;5017348;28;20057;-82
2022/04/19 14:06:52;;;;;;;2.63;0.60;;;17.90;38.60;;;;;;5017423;28;20069;-82